createdAt,value
2023-01-09T00:00:29.815Z,100344.11
2023-01-09T00:01:35.945Z,100339.71
2023-01-09T00:02:33.677Z,100334.73
2023-01-09T00:03:33.983Z,100335.73
2023-01-09T00:04:34.430Z,100339.23
2023-01-09T00:05:34.939Z,100337.07
2023-01-09T00:06:35.503Z,100335.31
2023-01-09T00:07:35.871Z,100336.02
2023-01-09T00:08:36.506Z,100331.41
2023-01-09T00:09:36.711Z,100333.88
2023-01-09T00:10:37.140Z,100339.59
2023-01-09T00:11:38.244Z,100337.88
2023-01-09T00:12:38.359Z,100338.47
2023-01-09T00:13:38.674Z,100339.12
2023-01-09T00:14:39.013Z,100340.77
2023-01-09T00:15:40.965Z,100339.25
2023-01-09T00:16:40.062Z,100342.14
2023-01-09T00:17:40.758Z,100346.67
2023-01-09T00:18:41.093Z,100342.02
2023-01-09T00:19:41.279Z,100344.56
2023-01-09T00:20:41.844Z,100351.07
2023-01-09T00:21:42.105Z,100349.09
2023-01-09T00:22:42.841Z,100348.15
2023-01-09T00:23:43.056Z,100346.93
2023-01-09T00:24:43.460Z,100351.3
2023-01-09T00:25:43.892Z,100346.33
2023-01-09T00:26:44.413Z,100350.26
2023-01-09T00:27:44.713Z,100347.14
2023-01-09T00:28:46.559Z,100345.52
2023-01-09T00:29:45.642Z,100343.83
2023-01-09T00:30:46.262Z,100344.09
2023-01-09T00:31:46.473Z,100342.28
2023-01-09T00:32:47.009Z,100341.53
2023-01-09T00:34:50.801Z,100340.45
2023-01-09T00:35:50.801Z,100337.17
2023-01-09T00:36:51.219Z,100332.41
2023-01-09T00:37:51.644Z,100337.63
2023-01-09T00:38:52.156Z,100336.02
2023-01-09T00:39:52.582Z,100338.12
2023-01-09T00:40:55.652Z,100335.89
2023-01-09T00:41:56.179Z,100324.91
2023-01-09T00:42:56.383Z,100323.88
2023-01-09T00:44:01.001Z,100324.05
2023-01-09T00:45:00.594Z,100322.34
2023-01-09T00:46:00.476Z,100321.41
2023-01-09T00:47:06.832Z,100321.06
2023-01-09T00:48:08.090Z,100317.12
2023-01-09T00:49:03.492Z,100316.77
2023-01-09T00:50:08.712Z,100325.5
2023-01-09T00:51:01.244Z,100326.72
2023-01-09T00:52:02.495Z,100320.72
2023-01-09T00:54:05.881Z,100319.05
2023-01-09T00:55:07.426Z,100309.64
2023-01-09T00:56:10.096Z,100316.52
2023-01-09T00:57:11.401Z,100313.53
2023-01-09T00:58:09.484Z,100310.16
2023-01-09T00:59:09.499Z,100317.56
2023-01-09T01:00:11.234Z,100309.31
2023-01-09T01:01:10.199Z,100314.83
2023-01-09T01:02:10.630Z,100311.25
2023-01-09T01:03:10.739Z,100305.81
2023-01-09T01:04:11.166Z,100308.27
2023-01-09T01:05:11.583Z,100302.81
2023-01-09T01:06:12.120Z,100306.08
2023-01-09T01:07:12.411Z,100304.69
2023-01-09T01:08:15.290Z,100300.95
2023-01-09T01:09:13.099Z,100300.14
2023-01-09T01:10:17.361Z,100299.61
2023-01-09T01:11:14.799Z,100301.95
2023-01-09T01:12:15.103Z,100293.95
2023-01-09T01:13:16.251Z,100291.61
2023-01-09T01:14:15.937Z,100289.09
2023-01-09T01:15:17.789Z,100288.27
2023-01-09T01:16:17.121Z,100293.77
2023-01-09T01:17:17.406Z,100287.45
2023-01-09T01:18:17.798Z,100288.55
2023-01-09T01:19:18.121Z,100291.84
2023-01-09T01:20:19.469Z,100290.02
2023-01-09T01:21:19.167Z,100293.14
2023-01-09T01:22:19.775Z,100297.69
2023-01-09T01:23:20.211Z,100293.62
2023-01-09T01:24:20.624Z,100295.76
2023-01-09T01:25:21.229Z,100293.02
2023-01-09T01:26:21.548Z,100292.97
2023-01-09T01:27:21.964Z,100291.38
2023-01-09T01:28:22.169Z,100284.3
2023-01-09T01:29:22.673Z,100288.64
2023-01-09T01:30:23.003Z,100287.66
2023-01-09T01:31:23.430Z,100287.95
2023-01-09T01:32:23.920Z,100289.66
2023-01-09T01:33:24.254Z,100290.16
2023-01-09T01:34:25.091Z,100284.92
2023-01-09T01:35:25.100Z,100280.45
2023-01-09T01:36:25.709Z,100283.27
2023-01-09T01:37:25.789Z,100279.83
2023-01-09T01:38:26.019Z,100279.25
2023-01-09T01:39:26.652Z,100282.7
2023-01-09T01:40:27.069Z,100273.41
2023-01-09T01:41:27.683Z,100281
2023-01-09T01:42:27.898Z,100278.81
2023-01-09T01:43:28.528Z,100282.08
2023-01-09T01:45:30.277Z,100266.17
2023-01-09T01:46:30.518Z,100271.15
2023-01-09T01:48:33.767Z,100274.41
2023-01-09T01:49:34.084Z,100272.41
2023-01-09T01:51:40.137Z,100270.97
2023-01-09T01:52:38.516Z,100267.23
2023-01-09T01:53:42.107Z,100268.62
2023-01-09T01:54:39.853Z,100264.02
2023-01-09T01:55:44.880Z,100268.08
2023-01-09T01:56:48.988Z,100262.84
2023-01-09T01:57:50.935Z,100261.07
2023-01-09T01:58:54.213Z,100258.08
2023-01-09T01:59:57.188Z,100254.58
2023-01-09T02:00:54.869Z,100256.47
2023-01-09T02:01:58.376Z,100252.43
2023-01-09T02:02:56.013Z,100255.39
2023-01-09T02:03:59.265Z,100255.38
2023-01-09T02:04:59.284Z,100257.89
2023-01-09T02:05:57.031Z,100257.85
2023-01-09T02:07:00.622Z,100257.13
2023-01-09T02:07:57.956Z,100262.73
2023-01-09T02:08:58.694Z,100262.02
2023-01-09T02:10:00.153Z,100264.49
2023-01-09T02:10:59.416Z,100258.94
2023-01-09T02:11:59.828Z,100255.26
2023-01-09T02:13:00.667Z,100259.17
2023-01-09T02:14:01.988Z,100256.31
2023-01-09T02:30:41.014Z,100252.45
2023-01-09T02:43:03.810Z,100246.16
2023-01-09T02:45:05.983Z,100240.94
2023-01-09T02:46:06.167Z,100244.05
2023-01-09T02:48:11.335Z,100239.98
2023-01-09T02:49:11.648Z,100240.2
2023-01-09T03:08:03.174Z,100228.58
2023-01-09T03:11:08.875Z,100230.41
2023-01-09T03:12:14.359Z,100230.81
2023-01-09T03:13:16.416Z,100230.09
2023-01-09T03:14:17.966Z,100226.15
2023-01-09T03:15:18.275Z,100225.28
2023-01-09T03:16:21.396Z,100222.59
2023-01-09T03:17:26.062Z,100226.72
2023-01-09T03:18:28.429Z,100222.82
2023-01-09T03:19:29.867Z,100220.09
2023-01-09T03:20:27.790Z,100225.36
2023-01-09T03:21:28.958Z,100215.69
2023-01-09T03:22:28.143Z,100219.31
2023-01-09T03:24:32.352Z,100216.17
2023-01-09T03:25:33.195Z,100217.39
2023-01-09T03:26:33.705Z,100216.72
2023-01-09T03:27:33.710Z,100215
2023-01-09T03:28:34.082Z,100210.84
2023-01-09T03:29:34.449Z,100208.62
2023-01-09T03:30:37.088Z,100210.64
2023-01-09T03:31:35.859Z,100209.14
2023-01-09T03:32:36.174Z,100205.92
2023-01-09T03:33:36.709Z,100200.33
2023-01-09T03:34:36.924Z,100200.87
2023-01-09T03:35:37.233Z,100198.73
2023-01-09T03:36:37.958Z,100199.01
2023-01-09T03:37:38.181Z,100195.72
2023-01-09T03:38:38.798Z,100196.34
2023-01-09T03:39:39.112Z,100186.23
2023-01-09T03:40:41.383Z,100189.73
2023-01-09T03:41:40.049Z,100188.86
2023-01-09T03:42:40.469Z,100183.08
2023-01-09T03:43:40.839Z,100173.29
2023-01-09T03:44:41.394Z,100181.93
2023-01-09T03:45:43.300Z,100177.27
2023-01-09T03:46:42.235Z,100177.82
2023-01-09T03:47:42.849Z,100171.5
2023-01-09T03:48:43.274Z,100174.99
2023-01-09T03:49:43.579Z,100173.58
2023-01-09T03:50:44.101Z,100178.16
2023-01-09T03:51:44.620Z,100176.75
2023-01-09T03:52:45.040Z,100174.63
2023-01-09T03:53:45.649Z,100171.28
2023-01-09T03:54:45.961Z,100176.09
2023-01-09T03:55:47.949Z,100173.48
2023-01-09T03:56:47.014Z,100173.38
2023-01-09T03:57:47.639Z,100171.7
2023-01-09T03:58:47.828Z,100179.24
2023-01-09T03:59:48.467Z,100172.88
2023-01-09T04:00:49.472Z,100171.47
2023-01-09T04:01:49.362Z,100164.07
2023-01-09T04:02:49.719Z,100170.69
2023-01-09T04:03:50.294Z,100163.41
2023-01-09T04:04:50.624Z,100169.76
2023-01-09T04:05:50.960Z,100166.77
2023-01-09T04:06:51.581Z,100166.8
2023-01-09T04:07:51.990Z,100164.78
2023-01-09T04:08:52.688Z,100165.98
2023-01-09T04:09:52.930Z,100163.77
2023-01-09T04:10:53.440Z,100158.03
2023-01-09T04:11:53.753Z,100157.92
2023-01-09T04:12:54.589Z,100159.87
2023-01-09T04:13:54.904Z,100163.42
2023-01-09T04:14:56.044Z,100163.34
2023-01-09T04:15:55.635Z,100166.37
2023-01-09T04:16:56.255Z,100162.62
2023-01-09T04:17:56.730Z,100164.12
2023-01-09T04:18:57.093Z,100167.09
2023-01-09T04:19:57.570Z,100168.03
2023-01-09T04:20:58.031Z,100170.14
2023-01-09T04:21:58.432Z,100171.47
2023-01-09T04:22:58.952Z,100167.7
2023-01-09T04:23:59.573Z,100168.41
2023-01-09T04:24:59.890Z,100167.72
2023-01-09T04:26:00.423Z,100168.01
2023-01-09T04:27:00.829Z,100168.7
2023-01-09T04:28:01.146Z,100170.12
2023-01-09T04:29:01.647Z,100165.9
2023-01-09T04:30:02.289Z,100167.97
2023-01-09T04:31:02.685Z,100165.67
2023-01-09T04:32:03.510Z,100163.44
2023-01-09T04:33:04.138Z,100157.06
2023-01-09T04:34:04.047Z,100157.64
2023-01-09T04:35:05.394Z,100161.52
2023-01-09T04:36:05.589Z,100156.94
2023-01-09T04:37:05.391Z,100156.12
2023-01-09T04:38:05.902Z,100156.2
2023-01-09T04:39:06.233Z,100152.37
2023-01-09T04:40:08.075Z,100152.8
2023-01-09T04:41:07.160Z,100146.11
2023-01-09T04:42:07.990Z,100152.12
2023-01-09T04:43:08.094Z,100155.01
2023-01-09T04:44:08.709Z,100151.62
2023-01-09T04:45:11.876Z,100140.58
2023-01-09T04:46:09.495Z,100139.34
2023-01-09T04:47:09.971Z,100137.04
2023-01-09T04:48:10.589Z,100143.23
2023-01-09T04:49:11.106Z,100148.62
2023-01-09T04:50:12.646Z,100144.09
2023-01-09T04:51:13.965Z,100146.19
2023-01-09T04:52:12.563Z,100143.34
2023-01-09T04:53:13.095Z,100146.16
2023-01-09T04:54:13.703Z,100144.33
2023-01-09T04:55:13.711Z,100136.98
2023-01-09T04:56:14.146Z,100134.94
2023-01-09T04:57:14.872Z,100131.76
2023-01-09T04:58:15.267Z,100136.08
2023-01-09T04:59:15.574Z,100135.59
2023-01-09T05:00:16.835Z,100133.58
2023-01-09T05:01:16.920Z,100129.94
2023-01-09T05:02:17.029Z,100126.54
2023-01-09T05:03:17.448Z,100125.89
2023-01-09T05:04:17.989Z,100136.59
2023-01-09T05:05:18.780Z,100127.86
2023-01-09T05:06:18.900Z,100127.94
2023-01-09T05:07:19.459Z,100127.2
2023-01-09T05:08:19.730Z,100129.81
2023-01-09T05:09:20.560Z,100132.34
2023-01-09T05:10:20.758Z,100130.25
2023-01-09T05:11:21.181Z,100127.71
2023-01-09T05:12:21.597Z,100127.5
2023-01-09T05:13:22.326Z,100126.05
2023-01-09T05:14:22.940Z,100127.62
2023-01-09T05:15:22.958Z,100126.88
2023-01-09T05:16:23.469Z,100124.02
2023-01-09T05:17:24.394Z,100121.8
2023-01-09T05:18:24.627Z,100119.72
2023-01-09T05:19:24.923Z,100114.23
2023-01-09T05:20:25.234Z,100122.88
2023-01-09T05:21:25.857Z,100115.67
2023-01-09T05:22:26.270Z,100121.22
2023-01-09T05:23:26.783Z,100112.92
2023-01-09T05:24:27.102Z,100120.34
2023-01-09T05:25:27.524Z,100115.28
2023-01-09T05:26:28.141Z,100116.22
2023-01-09T05:27:28.565Z,100113.66
2023-01-09T05:28:29.072Z,100119.73
2023-01-09T05:29:29.634Z,100118.84
2023-01-09T05:30:30.009Z,100115.78
2023-01-09T05:31:30.506Z,100112.99
2023-01-09T05:32:30.743Z,100115.13
2023-01-09T05:33:31.361Z,100121.78
2023-01-09T05:34:32.100Z,100125.6
2023-01-09T05:35:32.108Z,100122.92
2023-01-09T05:36:32.577Z,100126.72
2023-01-09T05:37:32.919Z,100128.62
2023-01-09T05:38:33.440Z,100125.48
2023-01-09T05:39:33.819Z,100127.47
2023-01-09T05:40:40.073Z,100125.3
2023-01-09T05:41:38.593Z,100124.13
2023-01-09T05:42:38.788Z,100127.83
2023-01-09T05:43:39.202Z,100126.56
2023-01-09T05:44:39.564Z,100127.5
2023-01-09T05:45:40.075Z,100126.19
2023-01-09T05:46:40.462Z,100126.34
2023-01-09T05:47:41.158Z,100121.67
2023-01-09T05:48:41.290Z,100125.31
2023-01-09T05:49:41.921Z,100117.21
2023-01-09T05:50:42.232Z,100120.67
2023-01-09T05:51:42.639Z,100120.16
2023-01-09T05:52:43.067Z,100122.28
2023-01-09T05:53:43.574Z,100119.82
2023-01-09T05:54:43.859Z,100123.28
2023-01-09T05:55:44.580Z,100113
2023-01-09T05:56:44.824Z,100114.63
2023-01-09T05:57:45.439Z,100114.5
2023-01-09T05:58:46.059Z,100117.38
2023-01-09T05:59:46.387Z,100117.77
2023-01-09T06:00:46.745Z,100118.67
2023-01-09T06:01:47.248Z,100126.14
2023-01-09T06:02:47.878Z,100121.73
2023-01-09T06:03:48.245Z,100125.45
2023-01-09T06:04:48.657Z,100124.48
2023-01-09T06:05:49.290Z,100123.92
2023-01-09T06:06:49.599Z,100127.97
2023-01-09T06:07:49.923Z,100120.59
2023-01-09T06:08:50.635Z,100111.97
2023-01-09T06:09:50.852Z,100110.88
2023-01-09T06:10:51.535Z,100107.81
2023-01-09T06:11:52.088Z,100107.34
2023-01-09T06:12:52.512Z,100105.69
2023-01-09T06:13:52.770Z,100101.53
2023-01-09T06:14:53.329Z,100105.02
2023-01-09T06:15:53.815Z,100104.23
2023-01-09T06:16:54.365Z,100109.44
2023-01-09T06:17:54.694Z,100117.45
2023-01-09T06:18:55.104Z,100122.52
2023-01-09T06:19:55.732Z,100127.51
2023-01-09T06:20:56.151Z,100132.39
2023-01-09T06:21:56.565Z,100129.1
2023-01-09T06:22:57.385Z,100129.62
2023-01-09T06:23:57.593Z,100126.7
2023-01-09T06:24:58.213Z,100133.5
2023-01-09T06:25:58.440Z,100132.84
2023-01-09T06:26:58.952Z,100129.14
2023-01-09T06:27:59.457Z,100129.34
2023-01-09T06:28:59.980Z,100126.39
2023-01-09T06:30:00.315Z,100132.81
2023-01-09T06:31:00.747Z,100128.02
2023-01-09T06:32:01.337Z,100127.76
2023-01-09T06:33:01.956Z,100127.87
2023-01-09T06:34:02.183Z,100128.42
2023-01-09T06:35:02.693Z,100128.99
2023-01-09T06:36:03.614Z,100130.84
2023-01-09T06:37:03.511Z,100125.23
2023-01-09T06:38:04.044Z,100127.19
2023-01-09T06:39:04.473Z,100135.88
2023-01-09T06:40:05.893Z,100134.3
2023-01-09T06:41:05.911Z,100127.05
2023-01-09T06:42:06.380Z,100125.83
2023-01-09T06:43:06.638Z,100130.28
2023-01-09T06:44:06.746Z,100132.09
2023-01-09T06:45:07.990Z,100132.27
2023-01-09T06:46:07.633Z,100134.91
2023-01-09T06:47:08.189Z,100136.28
2023-01-09T06:48:08.566Z,100132.36
2023-01-09T06:49:10.147Z,100129.14
2023-01-09T06:50:11.322Z,100125.64
2023-01-09T06:51:09.971Z,100126.44
2023-01-09T06:52:10.382Z,100132.2
2023-01-09T06:53:10.913Z,100120.64
2023-01-09T06:54:11.202Z,100127.06
2023-01-09T06:55:11.739Z,100125.51
2023-01-09T06:56:12.059Z,100126.73
2023-01-09T06:57:12.662Z,100121.22
2023-01-09T06:58:13.377Z,100120.74
2023-01-09T06:59:14.202Z,100121.58
2023-01-09T07:00:14.531Z,100127.8
2023-01-09T07:01:14.545Z,100119.33
2023-01-09T07:02:22.444Z,100125.22
2023-01-09T07:03:15.371Z,100124.02
2023-01-09T07:04:15.645Z,100120.48
2023-01-09T07:05:16.494Z,100123.33
2023-01-09T07:06:16.497Z,100124.19
2023-01-09T07:07:16.919Z,100123.58
2023-01-09T07:08:17.229Z,100121.91
2023-01-09T07:09:17.850Z,100130.23
2023-01-09T07:10:18.483Z,100122.38
2023-01-09T07:11:18.813Z,100128.41
2023-01-09T07:12:19.214Z,100125.69
2023-01-09T07:13:19.721Z,100129.05
2023-01-09T07:14:20.050Z,100131.42
2023-01-09T07:15:20.450Z,100133.57
2023-01-09T07:16:20.801Z,100132.67
2023-01-09T07:17:21.402Z,100130.47
2023-01-09T07:18:21.713Z,100133.49
2023-01-09T07:19:22.444Z,100131.97
2023-01-09T07:20:22.458Z,100124.97
2023-01-09T07:21:23.064Z,100130.27
2023-01-09T07:22:23.270Z,100134.45
2023-01-09T07:23:23.823Z,100126.64
2023-01-09T07:24:24.216Z,100130.56
2023-01-09T07:25:24.692Z,100125.44
2023-01-09T07:26:25.039Z,100124.04
2023-01-09T07:27:25.537Z,100122.33
2023-01-09T07:28:26.168Z,100121.86
2023-01-09T07:29:26.494Z,100127.39
2023-01-09T07:30:26.716Z,100133.42
2023-01-09T07:31:27.183Z,100127.19
2023-01-09T07:32:27.950Z,100128
2023-01-09T07:33:28.456Z,100119.3
2023-01-09T07:34:28.682Z,100125.56
2023-01-09T07:35:28.879Z,100126.34
2023-01-09T07:36:29.412Z,100122.4
2023-01-09T07:37:30.023Z,100123.34
2023-01-09T07:38:30.235Z,100119.79
2023-01-09T07:39:30.757Z,100119.98
2023-01-09T07:40:31.265Z,100124.7
2023-01-09T07:41:31.606Z,100126.74
2023-01-09T07:42:32.096Z,100125.23
2023-01-09T07:43:32.415Z,100124.22
2023-01-09T07:44:33.348Z,100125.45
2023-01-09T07:45:33.151Z,100130.19
2023-01-09T07:46:33.986Z,100123.76
2023-01-09T07:47:34.083Z,100131.09
2023-01-09T07:48:34.392Z,100132.2
2023-01-09T07:49:34.720Z,100128.53
2023-01-09T07:50:35.336Z,100124.93
2023-01-09T07:51:35.755Z,100120.51
2023-01-09T07:52:36.059Z,100126.87
2023-01-09T07:53:36.480Z,100129.84
2023-01-09T07:54:36.894Z,100127.13
2023-01-09T07:55:37.411Z,100133
2023-01-09T07:56:37.644Z,100121.58
2023-01-09T07:57:38.345Z,100123.88
2023-01-09T07:58:38.859Z,100120.09
2023-01-09T07:59:39.074Z,100117.2
2023-01-09T08:00:39.598Z,100116.38
2023-01-09T08:01:40.700Z,100118.88
2023-01-09T08:02:40.612Z,100107.95
2023-01-09T08:03:41.048Z,100107.74
2023-01-09T08:04:41.259Z,100110.62
2023-01-09T08:05:41.674Z,100109.2
2023-01-09T08:06:41.994Z,100108.7
2023-01-09T08:07:43.129Z,100109.66
2023-01-09T08:08:42.836Z,100109.25
2023-01-09T08:09:43.246Z,100114.41
2023-01-09T08:10:43.650Z,100115.41
2023-01-09T08:11:43.967Z,100113.89
2023-01-09T08:12:44.278Z,100110.5
2023-01-09T08:13:44.796Z,100108.31
2023-01-09T08:14:45.317Z,100111.63
2023-01-09T08:15:45.608Z,100116.33
2023-01-09T08:16:45.938Z,100120.95
2023-01-09T08:17:46.998Z,100120.27
2023-01-09T08:18:46.584Z,100119.12
2023-01-09T08:19:47.088Z,100115.31
2023-01-09T08:20:50.473Z,100115.24
2023-01-09T08:21:48.032Z,100112.19
2023-01-09T08:22:48.475Z,100112.69
2023-01-09T08:23:48.552Z,100117
2023-01-09T08:24:49.062Z,100115.99
2023-01-09T08:25:49.367Z,100118.6
2023-01-09T08:26:49.750Z,100120.36
2023-01-09T08:27:50.231Z,100116.38
2023-01-09T08:28:50.525Z,100118.05
2023-01-09T08:29:50.954Z,100117.88
2023-01-09T08:30:51.372Z,100120.25
2023-01-09T08:31:51.897Z,100117.08
2023-01-09T08:32:54.236Z,100118.3
2023-01-09T08:34:52.860Z,100111.22
2023-01-09T08:35:53.149Z,100109.35
2023-01-09T08:36:53.651Z,100116.62
2023-01-09T08:37:53.783Z,100117.41
2023-01-09T08:38:54.299Z,100117.41
2023-01-09T08:39:54.498Z,100113.81
2023-01-09T08:40:55.128Z,100115.34
2023-01-09T08:41:55.432Z,100114.62
2023-01-09T08:42:55.732Z,100108.58
2023-01-09T08:43:56.046Z,100109.3
2023-01-09T08:44:56.373Z,100107.4
2023-01-09T08:45:57.093Z,100110.77
2023-01-09T08:46:57.207Z,100099.97
2023-01-09T08:47:58.142Z,100104.74
2023-01-09T08:48:57.937Z,100097.95
2023-01-09T08:49:58.354Z,100100.27
2023-01-09T08:50:58.561Z,100103.28
2023-01-09T08:51:59.078Z,100098.02
2023-01-09T08:52:59.601Z,100102.14
2023-01-09T08:53:59.921Z,100100.17
2023-01-09T08:55:00.140Z,100098.77
2023-01-09T08:56:00.534Z,100101.7
2023-01-09T08:57:00.979Z,100103.49
2023-01-09T08:58:01.473Z,100100.86
2023-01-09T08:59:01.692Z,100102.71
2023-01-09T09:00:03.142Z,100098.06
2023-01-09T09:01:06.527Z,100101.48
2023-01-09T09:02:04.162Z,100103.68
2023-01-09T09:03:04.973Z,100102.59
2023-01-09T09:04:05.097Z,100092.8
2023-01-09T09:05:05.938Z,100092.85
2023-01-09T09:06:07.259Z,100096.97
2023-01-09T09:07:06.138Z,100096.14
2023-01-09T09:08:06.565Z,100096.31
2023-01-09T09:09:06.768Z,100092.14
2023-01-09T09:10:07.590Z,100094.96
2023-01-09T09:11:07.517Z,100091.86
2023-01-09T09:12:08.224Z,100093.16
2023-01-09T09:13:08.353Z,100092.23
2023-01-09T09:14:08.537Z,100091.3
2023-01-09T09:15:09.991Z,100092.1
2023-01-09T09:16:09.320Z,100084.64
2023-01-09T09:17:09.582Z,100087.11
2023-01-09T09:18:10.117Z,100086.34
2023-01-09T09:19:10.326Z,100086.2
2023-01-09T09:20:11.761Z,100087.2
2023-01-09T09:21:11.571Z,100085.76
2023-01-09T09:22:11.362Z,100090.58
2023-01-09T09:23:11.985Z,100090.54
2023-01-09T09:24:12.155Z,100090.23
2023-01-09T09:25:12.711Z,100087.47
2023-01-09T09:26:13.231Z,100088.54
2023-01-09T09:27:13.449Z,100090.11
2023-01-09T09:28:13.707Z,100088.14
2023-01-09T09:29:14.174Z,100089.84
2023-01-09T09:30:17.366Z,100088.19
2023-01-09T09:31:14.948Z,100090.39
2023-01-09T09:32:15.213Z,100090.22
2023-01-09T09:33:15.725Z,100086.66
2023-01-09T09:34:15.847Z,100090.14
2023-01-09T09:35:17.389Z,100092.06
2023-01-09T09:36:16.883Z,100084.85
2023-01-09T09:37:17.083Z,100078.72
2023-01-09T09:38:18.037Z,100087.16
2023-01-09T09:39:17.713Z,100077.02
2023-01-09T09:40:28.074Z,100074.47
2023-01-09T09:54:56.527Z,100082.58
2023-01-09T09:55:55.501Z,100083.96
2023-01-09T09:56:58.147Z,100083.6
2023-01-09T09:57:58.796Z,100082.25
2023-01-09T09:59:57.373Z,100090.75
2023-01-09T10:01:00.471Z,100088.27
2023-01-09T10:03:11.662Z,100085.88
2023-01-09T10:04:10.913Z,100083.53
2023-01-09T10:05:18.821Z,100084.44
2023-01-09T10:06:22.208Z,100081.13
2023-01-09T10:13:32.504Z,100077.36
2023-01-09T10:14:31.263Z,100079.99
2023-01-09T10:37:42.365Z,100044.02
2023-01-09T10:38:44.014Z,100038.91
2023-01-09T10:40:52.825Z,100037.73
2023-01-09T10:47:01.658Z,100024.55
2023-01-09T10:49:03.760Z,100023.46
2023-01-09T10:58:22.229Z,100022.2
2023-01-09T10:59:21.625Z,100017.75
2023-01-09T11:00:24.588Z,100014.34
2023-01-09T11:02:29.777Z,100007.05
2023-01-09T11:03:29.109Z,100005.95
2023-01-09T11:04:34.963Z,100012.35
2023-01-09T11:05:32.938Z,100009.76
2023-01-09T11:07:38.919Z,100000.55
2023-01-09T11:08:41.134Z,100006.1
2023-01-09T11:11:43.357Z,100003.67
2023-01-09T11:12:43.926Z,100009.2
2023-01-09T11:13:44.132Z,100009.31
2023-01-09T11:14:44.548Z,100008.53
2023-01-09T11:15:44.882Z,100009.8
2023-01-09T11:16:56.451Z,100009.84
2023-01-09T11:17:51.439Z,100011.83
2023-01-09T11:18:54.415Z,100018.39
2023-01-09T11:20:52.992Z,100018.84
2023-01-09T11:25:03.104Z,100017.83
2023-01-09T11:26:02.515Z,100019.12
2023-01-09T11:31:06.227Z,100008.5
2023-01-09T11:34:19.014Z,100005.45
2023-01-09T11:35:22.982Z,99997.27
2023-01-09T11:36:27.297Z,100004.98
2023-01-09T11:38:27.206Z,100000.89
2023-01-09T11:39:29.571Z,100000.44
2023-01-09T11:40:28.332Z,99999.78
2023-01-09T11:41:32.356Z,99996.94
2023-01-09T11:42:30.160Z,99996.47
2023-01-09T11:43:39.004Z,99996.38
2023-01-09T11:44:32.159Z,99989.12
2023-01-09T11:45:34.933Z,99987.87
2023-01-09T11:46:36.204Z,99986.97
2023-01-09T11:47:40.336Z,99986.97
2023-01-09T11:49:38.430Z,99994.23
2023-01-09T11:50:38.743Z,99993.55
2023-01-09T11:51:39.672Z,99995.53
2023-01-09T11:52:39.801Z,99991.52
2023-01-09T11:53:52.305Z,99988.6
2023-01-09T11:56:52.217Z,99992.56
2023-01-09T11:57:52.621Z,99992.81
2023-01-09T11:58:52.621Z,99994.52
2023-01-09T11:59:52.945Z,99991.22
2023-01-09T12:47:51.462Z,99983.09
2023-01-09T12:56:14.315Z,99977.46
2023-01-09T12:57:25.824Z,99973.25
2023-01-09T13:00:23.790Z,99973.86
2023-01-09T13:04:34.571Z,99974.62
2023-01-09T13:06:44.212Z,99975.97
2023-01-09T13:12:51.631Z,99979.05
2023-01-09T13:16:00.676Z,99979.2
2023-01-09T13:16:59.906Z,99977.5
2023-01-09T13:21:08.672Z,99972.43
2023-01-09T13:22:08.372Z,99974.14
2023-01-09T13:27:22.335Z,99982.41
2023-01-09T13:28:25.481Z,99979.97
2023-01-09T13:29:31.054Z,99979.44
2023-01-09T13:34:32.997Z,99981.52
2023-01-09T13:35:30.784Z,99984.16
2023-01-09T13:36:33.824Z,99983.26
2023-01-09T13:38:36.426Z,99988.57
2023-01-09T13:39:35.622Z,99989.74
2023-01-09T13:40:35.032Z,99994.97
2023-01-09T13:42:39.273Z,99993.72
2023-01-09T13:44:41.499Z,100002.88
2023-01-09T13:45:41.308Z,100000.08
2023-01-09T13:46:45.496Z,100000.56
2023-01-09T13:47:43.473Z,100004.58
2023-01-09T13:48:43.354Z,100000.61
2023-01-09T13:50:47.590Z,99996.11
2023-01-09T13:52:47.853Z,99982.04
2023-01-09T13:53:48.316Z,99990.31
2023-01-09T13:59:01.440Z,99989.5
2023-01-09T14:01:04.870Z,99990.84
2023-01-09T14:02:02.548Z,99991.52
2023-01-09T14:06:17.055Z,99999.06
2023-01-09T14:08:20.058Z,99995.05
2023-01-09T14:09:23.295Z,99998.33
2023-01-09T14:10:27.449Z,99994.41
2023-01-09T14:11:25.101Z,99990.64
2023-01-09T14:12:26.277Z,99990.14
2023-01-09T14:13:33.182Z,99987.31
2023-01-09T14:14:33.490Z,99996.8
2023-01-09T14:15:38.010Z,99994.89
2023-01-09T14:16:36.874Z,99999.51
2023-01-09T14:17:38.017Z,99993.47
2023-01-09T14:18:39.149Z,99999.11
2023-01-09T14:19:39.055Z,99996.15
2023-01-09T14:22:55.873Z,99992.91
2023-01-09T14:24:50.144Z,99990.06
2023-01-09T14:25:51.602Z,99986.42
2023-01-09T14:26:56.295Z,99987.47
2023-01-09T14:28:06.537Z,99983.7
2023-01-09T14:37:13.984Z,99995.58
2023-01-09T14:39:14.441Z,99992.58
2023-01-09T14:42:24.345Z,100003.8
2023-01-09T14:43:32.446Z,99995.98
2023-01-09T14:45:27.658Z,100000.97
2023-01-09T14:46:34.650Z,99997.64
2023-01-09T14:47:39.758Z,100003
2023-01-09T14:48:34.126Z,99999.42
2023-01-09T14:49:40.988Z,100004.2
2023-01-09T14:51:43.055Z,99994.36
2023-01-09T14:52:52.992Z,99994.84
2023-01-09T14:53:46.136Z,99996.42
2023-01-09T14:54:48.597Z,99995.09
2023-01-09T14:55:53.215Z,100004.86
2023-01-09T14:56:50.878Z,100003.8
2023-01-09T14:57:51.073Z,100002.99
2023-01-09T15:00:01.811Z,100000.08
2023-01-09T15:01:59.352Z,100004.91
2023-01-09T15:02:56.811Z,100003.8
2023-01-09T15:06:05.259Z,100002.47
2023-01-09T15:07:06.395Z,100006.03
2023-01-09T15:08:05.589Z,100006.64
2023-01-09T15:11:11.750Z,100006.04
2023-01-09T15:12:16.362Z,100005.59
2023-01-09T15:13:18.625Z,100008.95
2023-01-09T15:15:22.632Z,100009.89
2023-01-09T15:16:23.412Z,100005.27
2023-01-09T15:17:28.991Z,100010.89
2023-01-09T15:18:29.308Z,100007.17
2023-01-09T15:19:22.862Z,100007.73
2023-01-09T15:20:27.851Z,100005.42
2023-01-09T15:21:27.051Z,100003.81
2023-01-09T15:22:30.864Z,100004.13
2023-01-09T15:23:30.167Z,100002.02
2023-01-09T15:24:30.874Z,100000.89
2023-01-09T15:25:39.886Z,99999.8
2023-01-09T15:26:32.736Z,100004.91
2023-01-09T15:27:33.250Z,100005.67
2023-01-09T15:28:34.806Z,100011.14
2023-01-09T15:29:33.876Z,100005.62
2023-01-09T15:30:36.421Z,100011.5
2023-01-09T15:31:34.874Z,100013.45
2023-01-09T15:32:35.755Z,100018.39
2023-01-09T15:33:39.261Z,100009.84
2023-01-09T15:34:37.087Z,100015.11
2023-01-09T15:35:43.034Z,100013.66
2023-01-09T15:36:40.424Z,100014.75
2023-01-09T15:37:43.870Z,100015.84
2023-01-09T15:38:42.036Z,100008.8
2023-01-09T15:39:41.422Z,100015.72
2023-01-09T15:40:42.043Z,100011.98
2023-01-09T15:41:46.657Z,100011.02
2023-01-09T15:42:45.545Z,100011.88
2023-01-09T15:43:45.029Z,100012.64
2023-01-09T15:44:49.144Z,100009.36
2023-01-09T15:45:48.454Z,100011.13
2023-01-09T15:46:48.341Z,100010.73
2023-01-09T15:47:47.229Z,100016.53
2023-01-09T15:48:53.947Z,100009.72